Time;durP1;ratioP1;P1;durP2;ratioP2;P2;SDS_P1;SDS_P2;PMS_P1;PMS_P2;Temp;Humidity;BMP_temperature;BMP_pressure;BME280_temperature;BME280_humidity;BME280_pressure;Samples;Min_cycle;Max_cycle;Signal;HPM_P1;HPM_P2
2021/11/23 00:02:12;;;;;;;10.80;6.35;;;;;;;-142.75;100.00;79441.34;5005240;28;20025;-67
2021/11/23 00:04:37;;;;;;;12.80;6.07;;;;;;;-142.75;100.00;79468.94;5005422;28;20052;-67
2021/11/23 00:07:03;;;;;;;14.27;6.83;;;;;;;-142.75;100.00;79455.16;5005435;28;20037;-67
2021/11/23 00:09:28;;;;;;;16.10;7.32;;;;;;;-142.75;100.00;79437.41;5005344;28;20650;-67
2021/11/23 00:11:53;;;;;;;13.65;6.10;;;;;;;-142.75;100.00;79435.44;5004723;28;20022;-66
2021/11/23 00:14:19;;;;;;;13.75;6.85;;;;;;;-142.75;100.00;79425.59;5005401;28;20100;-67
2021/11/23 00:16:44;;;;;;;17.52;7.20;;;;;;;-142.75;100.00;79421.66;5005636;28;20029;-66
2021/11/23 00:19:09;;;;;;;9.83;5.50;;;;;;;-142.75;100.00;79413.78;5005423;28;20026;-67
2021/11/23 00:21:35;;;;;;;12.97;6.07;;;;;;;-142.75;100.00;79405.91;5004238;28;20269;-66
2021/11/23 00:24:00;;;;;;;12.37;5.07;;;;;;;-142.75;100.00;79401.97;5008866;28;20830;-67
2021/11/23 00:26:26;;;;;;;11.63;4.82;;;;;;;-142.75;100.00;79394.09;5002467;28;20033;-67
2021/11/23 00:28:51;;;;;;;10.48;4.70;;;;;;;-142.75;100.00;79382.25;4988841;28;20033;-66
2021/11/23 00:31:17;;;;;;;10.88;4.88;;;;;;;-142.75;100.00;79374.38;4988440;28;20515;-66
2021/11/23 00:33:42;;;;;;;10.77;5.05;;;;;;;-142.75;100.00;79370.44;4988878;28;20030;-67
2021/11/23 00:36:09;;;;;;;11.90;5.07;;;;;;;-142.75;100.00;79362.56;4989018;28;20034;-66
2021/11/23 00:38:35;;;;;;;12.30;4.43;;;;;;;-142.75;100.00;79348.78;4988882;28;20050;-66
2021/11/23 00:41:00;;;;;;;13.52;4.70;;;;;;;-142.75;100.00;79338.94;4988112;28;20638;-66
2021/11/23 00:43:26;;;;;;;12.10;4.07;;;;;;;-142.75;100.00;79336.94;4988970;28;20033;-66
2021/11/23 00:45:51;;;;;;;11.40;4.60;;;;;;;-142.75;100.00;79329.06;4989002;28;20029;-66
2021/11/23 00:48:16;;;;;;;13.45;4.80;;;;;;;-142.75;100.00;79344.84;4988921;28;20030;-66
2021/11/23 00:50:42;;;;;;;11.87;4.87;;;;;;;-142.75;100.00;79338.94;4988084;28;20034;-66
2021/11/23 00:53:07;;;;;;;11.00;3.95;;;;;;;-142.75;100.00;79335.00;4989362;28;20331;-66
2021/11/23 00:55:34;;;;;;;9.27;5.28;;;;;;;-142.75;100.00;79360.59;4988632;28;20033;-67
2021/11/23 00:57:59;;;;;;;;;;;;;;;-142.75;100.00;79358.63;4989231;28;20103;-66
2021/11/23 01:00:24;;;;;;;10.33;4.37;;;;;;;-142.75;100.00;79378.31;4987840;28;19945;-66
2021/11/23 01:02:50;;;;;;;8.07;4.40;;;;;;;-142.75;100.00;79372.41;4987274;28;20060;-66
2021/11/23 01:05:16;;;;;;;12.35;4.72;;;;;;;-142.75;100.00;79358.63;4989020;28;20387;-67
2021/11/23 01:07:41;;;;;;;10.93;4.60;;;;;;;-142.75;100.00;79376.34;4988445;28;20101;-66
2021/11/23 01:10:08;;;;;;;10.23;4.60;;;;;;;-142.75;100.00;79374.38;4987461;28;20113;-66
2021/11/23 01:12:35;;;;;;;7.47;4.40;;;;;;;-142.75;100.00;79372.41;4988584;28;20495;-66
2021/11/23 01:15:00;;;;;;;;;;;;;;;-142.75;100.00;79370.44;4988815;28;20022;-67
2021/11/23 01:17:25;;;;;;;11.43;4.70;;;;;;;-142.75;100.00;79364.53;4988349;28;19921;-66
2021/11/23 01:19:51;;;;;;;10.85;4.93;;;;;;;-142.75;100.00;79370.44;4987702;28;20109;-66
2021/11/23 01:22:16;;;;;;;10.98;4.65;;;;;;;-142.75;100.00;79384.22;4988927;28;20026;-67
2021/11/23 01:24:42;;;;;;;9.73;4.05;;;;;;;-142.75;100.00;79382.25;4988489;28;20061;-67
2021/11/23 01:27:07;;;;;;;12.35;4.53;;;;;;;-142.75;100.00;79370.44;5004646;28;20039;-67
2021/11/23 01:29:33;;;;;;;6.25;4.15;;;;;;;-142.75;100.00;79344.84;4989446;28;20026;-67
2021/11/23 01:31:58;;;;;;;12.75;4.30;;;;;;;-142.75;100.00;79331.03;4986843;28;20049;-66
2021/11/23 01:34:23;;;;;;;7.60;3.95;;;;;;;-142.75;100.00;79335.00;4987728;28;20479;-66
2021/11/23 01:36:50;;;;;;;7.70;3.72;;;;;;;-142.75;100.00;79309.38;4986834;28;20022;-67
2021/11/23 01:39:16;;;;;;;13.87;3.40;;;;;;;-142.75;100.00;79287.72;4988528;28;20022;-66
2021/11/23 01:41:42;;;;;;;7.72;3.55;;;;;;;-142.75;100.00;79275.88;4987114;28;20467;-67
2021/11/23 01:44:08;;;;;;;11.23;3.88;;;;;;;-142.75;100.00;79264.06;5002373;28;20054;-67
2021/11/23 01:46:33;;;;;;;10.05;3.67;;;;;;;-142.75;100.00;79254.22;4995368;28;20476;-66
2021/11/23 01:48:58;;;;;;;16.30;4.40;;;;;;;-142.75;100.00;79248.31;4987671;28;20098;-67
2021/11/23 01:51:24;;;;;;;11.20;3.47;;;;;;;-142.75;100.00;79264.06;4987196;28;20223;-67
2021/11/23 01:53:49;;;;;;;9.77;4.13;;;;;;;-142.75;100.00;79258.16;4987134;28;20277;-66
2021/11/23 01:56:15;;;;;;;9.55;3.45;;;;;;;-142.75;100.00;79246.34;4986749;28;20296;-67
2021/11/23 01:58:40;;;;;;;8.82;3.63;;;;;;;-142.75;100.00;79242.41;4987940;28;20487;-67
2021/11/23 02:01:07;;;;;;;10.05;3.42;;;;;;;-142.75;100.00;79242.41;4986549;28;20029;-67
2021/11/23 02:03:36;;;;;;;8.50;2.80;;;;;;;-142.75;100.00;79218.75;4987819;28;20480;-66
2021/11/23 02:06:03;;;;;;;9.63;2.50;;;;;;;-142.75;100.00;79201.03;4987464;28;20452;-67
2021/11/23 02:08:28;;;;;;;;;;;;;;;-142.75;100.00;79183.31;4987947;28;20033;-67
2021/11/23 02:10:53;;;;;;;9.27;2.63;;;;;;;-142.75;100.00;79199.06;5001863;28;19921;-67
2021/11/23 02:13:19;;;;;;;8.85;2.95;;;;;;;-142.75;100.00;79189.22;4993311;28;20109;-67
2021/11/23 02:15:45;;;;;;;8.45;2.90;;;;;;;-142.75;100.00;79181.34;4986597;28;20388;-67
2021/11/23 02:18:15;;;;;;;8.65;2.47;;;;;;;-142.75;100.00;79155.72;4985953;28;20083;-67
2021/11/23 02:20:41;;;;;;;5.03;1.73;;;;;;;-142.75;100.00;79143.91;4986723;28;20022;-67
2021/11/23 02:23:07;;;;;;;;;;;;;;;-142.75;100.00;79139.97;4988335;28;20037;-67
2021/11/23 02:25:32;;;;;;;6.03;2.03;;;;;;;-142.75;100.00;79138.00;4987513;28;20363;-67
2021/11/23 02:27:57;;;;;;;6.77;2.10;;;;;;;-142.75;100.00;79124.22;4987259;28;20031;-66
2021/11/23 02:30:23;;;;;;;7.25;2.20;;;;;;;-142.75;100.00;79110.44;4986185;28;20289;-67
2021/11/23 02:32:52;;;;;;;6.80;2.37;;;;;;;-142.75;100.00;79108.47;4990029;28;20098;-67
2021/11/23 02:35:20;;;;;;;12.10;2.20;;;;;;;-142.75;100.00;79102.56;5006868;28;20033;-67
2021/11/23 02:37:49;;;;;;;16.00;2.80;;;;;;;-142.75;100.00;79102.56;5006883;28;20045;-67
2021/11/23 02:40:16;;;;;;;4.90;2.27;;;;;;;-142.75;100.00;79116.34;5005277;28;20023;-67
2021/11/23 02:42:43;;;;;;;10.33;2.37;;;;;;;-142.75;100.00;79116.34;4987044;28;20188;-67
2021/11/23 02:45:09;;;;;;;5.28;1.95;;;;;;;-142.75;100.00;79126.19;4986896;28;20121;-67
2021/11/23 02:47:38;;;;;;;9.90;1.90;;;;;;;-142.75;100.00;79116.34;4986036;28;20048;-67
2021/11/23 02:50:06;;;;;;;12.00;2.50;;;;;;;-142.75;100.00;79120.28;4986204;28;20083;-67
2021/11/23 02:52:32;;;;;;;7.77;2.00;;;;;;;-142.75;100.00;79120.28;4987275;28;20426;-67
2021/11/23 02:54:59;;;;;;;4.35;2.10;;;;;;;-142.75;100.00;79108.47;4987183;28;20034;-66
2021/11/23 02:57:31;;;;;;;6.60;1.73;;;;;;;-142.75;100.00;79098.63;4986940;28;20025;-67
2021/11/23 02:59:57;;;;;;;11.80;1.90;;;;;;;-142.75;100.00;79094.69;4986032;28;20754;-67
2021/11/23 03:02:22;;;;;;;6.28;1.85;;;;;;;-142.75;100.00;79078.91;4986754;28;20457;-67
2021/11/23 03:04:56;;;;;;;6.22;1.55;;;;;;;-142.75;100.00;79059.22;4987024;28;20065;-67
2021/11/23 03:07:22;;;;;;;10.50;1.73;;;;;;;-142.75;100.00;79039.53;4986633;28;20030;-66
2021/11/23 03:09:48;;;;;;;5.83;1.87;;;;;;;-142.75;100.00;79033.63;4986098;28;20055;-67
2021/11/23 03:12:18;;;;;;;3.70;1.55;;;;;;;-142.75;100.00;79019.81;4986664;28;20113;-66
2021/11/23 03:14:45;;;;;;;7.80;1.90;;;;;;;-142.75;100.00;79002.09;4986674;28;20033;-67
2021/11/23 03:17:11;;;;;;;;;;;;;;;-142.75;100.00;79015.88;4987004;28;20614;-66
2021/11/23 03:19:36;;;;;;;9.07;2.20;;;;;;;-142.75;100.00;78990.28;4985408;28;19997;-67
2021/11/23 03:22:03;;;;;;;4.70;1.90;;;;;;;-142.75;100.00;78982.41;4986118;28;20161;-66
2021/11/23 03:24:30;;;;;;;7.67;1.30;;;;;;;-142.75;100.00;78992.25;4985816;28;20068;-67
2021/11/23 03:26:55;;;;;;;6.17;1.40;;;;;;;-142.75;100.00;78984.38;4986578;28;20038;-67
2021/11/23 03:29:21;;;;;;;6.28;1.38;;;;;;;-142.75;100.00;78980.44;4986537;28;20033;-67
2021/11/23 03:31:46;;;;;;;5.73;1.80;;;;;;;-142.75;100.00;78984.38;4985876;28;20030;-67
2021/11/23 03:34:14;;;;;;;5.30;1.50;;;;;;;-142.75;100.00;78978.47;4986359;28;20288;-67
2021/11/23 03:36:40;;;;;;;4.40;1.30;;;;;;;-142.75;100.00;78976.50;4985080;28;20018;-67
2021/11/23 03:39:09;;;;;;;4.70;1.73;;;;;;;-142.75;100.00;78974.53;4986165;28;20140;-67
2021/11/23 03:41:35;;;;;;;10.87;1.53;;;;;;;-142.75;100.00;78972.56;4985646;28;20029;-67
2021/11/23 03:44:01;;;;;;;;;;;;;;;-142.75;100.00;78952.84;4986691;28;20134;-67
2021/11/23 03:46:26;;;;;;;7.00;1.47;;;;;;;-142.75;100.00;78948.91;4986309;28;20426;-67
2021/11/23 03:48:52;;;;;;;8.10;1.80;;;;;;;-142.75;100.00;78952.84;4986314;28;20438;-66
2021/11/23 03:51:18;;;;;;;6.32;1.63;;;;;;;-142.75;100.00;78948.91;4985679;28;20029;-67
2021/11/23 03:53:44;;;;;;;;;;;;;;;-142.75;100.00;78974.53;4987096;28;20058;-67
2021/11/23 03:56:10;;;;;;;5.00;1.37;;;;;;;-142.75;100.00;78986.34;4986203;28;20414;-67
2021/11/23 03:58:35;;;;;;;5.00;2.10;;;;;;;-142.75;100.00;78984.38;4998943;28;20030;-67
2021/11/23 04:01:01;;;;;;;4.90;1.65;;;;;;;-142.75;100.00;78970.59;5008318;28;20532;-67
2021/11/23 04:03:26;;;;;;;3.05;1.40;;;;;;;-142.75;100.00;78956.78;5009070;28;20022;-67
2021/11/23 04:05:51;;;;;;;5.55;1.50;;;;;;;-142.75;100.00;78962.69;5008142;28;20026;-66
2021/11/23 04:08:19;;;;;;;8.40;1.43;;;;;;;-142.75;100.00;78954.81;5007702;28;20061;-67
2021/11/23 04:10:44;;;;;;;5.00;1.47;;;;;;;-142.75;100.00;78964.69;4991907;28;20097;-66
2021/11/23 04:13:09;;;;;;;6.87;1.60;;;;;;;-142.75;100.00;78972.56;4989562;28;20064;-66
2021/11/23 04:15:35;;;;;;;7.07;1.57;;;;;;;-142.75;100.00;78976.50;4989375;28;20281;-67
2021/11/23 04:18:01;;;;;;;6.13;1.40;;;;;;;-142.75;100.00;78952.84;4989167;28;20273;-67
2021/11/23 04:20:26;;;;;;;5.18;1.50;;;;;;;-142.75;100.00;78960.72;4988547;28;20019;-67
2021/11/23 04:22:52;;;;;;;7.32;2.47;;;;;;;-142.75;100.00;78962.69;4989570;28;20049;-67
2021/11/23 04:25:17;;;;;;;9.20;1.95;;;;;;;-142.75;100.00;78950.88;4989647;28;20058;-67
2021/11/23 04:27:42;;;;;;;11.57;1.80;;;;;;;-142.75;100.00;78948.91;4989269;28;20531;-67
2021/11/23 04:30:11;;;;;;;5.15;1.67;;;;;;;-142.75;100.00;78933.16;4987958;28;20446;-67
2021/11/23 04:32:36;;;;;;;10.90;2.00;;;;;;;-142.75;100.00;78927.25;5004289;23;20042;-69
2021/11/23 04:35:03;;;;;;;8.10;1.63;;;;;;;-142.75;100.00;78931.19;4988812;28;20075;-69
2021/11/23 04:37:28;;;;;;;6.50;1.87;;;;;;;-142.75;100.00;78929.22;4989077;28;20109;-69
2021/11/23 04:39:53;;;;;;;6.47;2.20;;;;;;;-142.75;100.00;78915.44;4987048;28;20102;-69
2021/11/23 04:42:20;;;;;;;9.10;1.90;;;;;;;-142.75;100.00;78913.47;4989071;28;20693;-69
2021/11/23 04:44:45;;;;;;;6.57;1.70;;;;;;;-142.75;100.00;78907.56;4989393;28;20354;-69
2021/11/23 04:47:10;;;;;;;5.28;1.30;;;;;;;-142.75;100.00;78909.53;4987636;28;20186;-69
2021/11/23 04:49:36;;;;;;;7.40;1.90;;;;;;;-142.75;100.00;78905.59;4988581;28;20034;-70
2021/11/23 04:52:01;;;;;;;16.52;1.67;;;;;;;-142.75;100.00;78901.66;4988019;28;20034;-69
2021/11/23 04:54:26;;;;;;;9.55;1.58;;;;;;;-142.75;100.00;78897.72;4989274;28;20036;-69
2021/11/23 04:56:52;;;;;;;7.97;1.55;;;;;;;-142.75;100.00;78883.91;4988783;28;20037;-68
2021/11/23 04:59:17;;;;;;;9.68;1.48;;;;;;;-142.75;100.00;78905.59;4987679;28;20050;-69
2021/11/23 05:01:42;;;;;;;5.78;1.52;;;;;;;-142.75;100.00;78887.84;4986849;28;20064;-69
2021/11/23 05:04:07;;;;;;;7.03;1.52;;;;;;;-142.75;100.00;78881.94;4987013;28;20057;-69
2021/11/23 05:06:33;;;;;;;4.00;1.30;;;;;;;-142.75;100.00;78872.09;4987367;28;20399;-70
2021/11/23 05:08:58;;;;;;;6.65;1.52;;;;;;;-142.75;100.00;78881.94;4986489;28;20083;-70
2021/11/23 05:11:27;;;;;;;8.10;1.47;;;;;;;-142.75;100.00;78883.91;4987590;28;20447;-69
2021/11/23 05:13:52;;;;;;;7.30;1.17;;;;;;;-142.75;100.00;78879.97;4988538;28;20281;-69
2021/11/23 05:16:17;;;;;;;7.65;1.50;;;;;;;-142.75;100.00;78876.03;4988628;28;20484;-69
2021/11/23 05:18:43;;;;;;;9.53;1.63;;;;;;;-142.75;100.00;78872.09;4987016;28;20030;-69
2021/11/23 05:21:08;;;;;;;3.78;1.05;;;;;;;-142.75;100.00;78876.03;4987570;28;21950;-69
2021/11/23 05:23:34;;;;;;;7.03;1.77;;;;;;;-142.75;100.00;78868.16;4987689;28;20041;-70
2021/11/23 05:25:59;;;;;;;7.75;1.67;;;;;;;-142.75;100.00;78866.19;4988400;28;20109;-69
2021/11/23 05:28:24;;;;;;;6.72;1.45;;;;;;;-142.75;100.00;78870.13;4985923;28;20037;-69
2021/11/23 05:30:51;;;;;;;4.93;1.65;;;;;;;-142.75;100.00;78872.09;4987261;28;20037;-68
2021/11/23 05:33:17;;;;;;;5.25;1.70;;;;;;;-142.75;100.00;78872.09;4988644;28;20056;-69
2021/11/23 05:35:42;;;;;;;5.03;1.30;;;;;;;-142.75;100.00;78870.13;4987778;28;20034;-69
2021/11/23 05:38:07;;;;;;;7.53;1.75;;;;;;;-142.75;100.00;78879.97;4988132;28;20045;-69
2021/11/23 05:40:33;;;;;;;8.73;1.33;;;;;;;-142.75;100.00;78885.88;4985992;28;20026;-70
2021/11/23 05:42:58;;;;;;;6.47;1.33;;;;;;;-142.75;100.00;78887.84;4987818;28;20511;-69
2021/11/23 05:45:23;;;;;;;3.80;1.23;;;;;;;-142.75;100.00;78893.78;4987996;28;20029;-69
2021/11/23 05:47:49;;;;;;;6.93;1.83;;;;;;;-142.75;100.00;78883.91;4988060;28;20774;-67
2021/11/23 05:50:14;;;;;;;6.53;1.50;;;;;;;-142.75;100.00;78887.84;4985985;28;20294;-70
2021/11/23 05:52:39;;;;;;;6.00;1.00;;;;;;;-142.75;100.00;78879.97;4988002;28;20030;-69
2021/11/23 05:55:05;;;;;;;4.80;1.73;;;;;;;-142.75;100.00;78887.84;4988707;28;20884;-69
2021/11/23 05:57:31;;;;;;;7.43;1.38;;;;;;;-142.75;100.00;78885.88;4987721;28;20065;-69
2021/11/23 05:59:56;;;;;;;4.28;1.65;;;;;;;-142.75;100.00;78881.94;4987127;28;20107;-69
2021/11/23 06:02:21;;;;;;;4.40;1.50;;;;;;;-142.75;100.00;78885.88;4987580;28;20041;-69
2021/11/23 06:04:47;;;;;;;5.50;1.65;;;;;;;-142.75;100.00;78887.84;4986667;28;20027;-69
2021/11/23 06:07:12;;;;;;;7.60;1.63;;;;;;;-142.75;100.00;78893.78;4987457;28;20030;-69
2021/11/23 06:09:37;;;;;;;7.07;1.65;;;;;;;-142.75;100.00;78891.78;4985908;28;20030;-67
2021/11/23 06:12:04;;;;;;;4.40;1.40;;;;;;;-142.75;100.00;78915.44;4987154;28;20539;-69
2021/11/23 06:14:30;;;;;;;8.63;1.50;;;;;;;-142.75;100.00;78929.22;4987578;28;20026;-69
2021/11/23 06:16:56;;;;;;;10.43;1.60;;;;;;;-142.75;100.00;78917.41;4986337;28;20412;-69
2021/11/23 06:19:21;;;;;;;;;;;;;;;-142.75;100.00;78921.34;4987944;28;20064;-69
2021/11/23 06:21:47;;;;;;;7.30;1.60;;;;;;;-142.75;100.00;78901.66;4986753;28;20054;-69
2021/11/23 06:24:12;;;;;;;7.95;1.48;;;;;;;-142.75;100.00;78881.94;4987842;28;20031;-69
2021/11/23 06:26:38;;;;;;;8.98;1.85;;;;;;;-142.75;100.00;78874.06;4987511;28;20063;-69
2021/11/23 06:29:05;;;;;;;8.57;2.05;;;;;;;-142.75;100.00;78878.00;4987301;28;20121;-69
2021/11/23 06:31:30;;;;;;;6.77;1.77;;;;;;;-142.75;100.00;78866.19;4986021;28;20091;-69
2021/11/23 06:33:56;;;;;;;8.30;1.67;;;;;;;-142.75;100.00;78866.19;4985741;28;20027;-70
2021/11/23 06:36:22;;;;;;;8.38;1.52;;;;;;;-142.75;100.00;78850.44;4987019;28;20041;-68
2021/11/23 06:38:50;;;;;;;8.30;1.83;;;;;;;-142.75;100.00;78850.44;4986776;28;20047;-70
2021/11/23 06:41:15;;;;;;;8.63;1.70;;;;;;;-142.75;100.00;78846.50;4986005;28;20116;-69
2021/11/23 06:43:40;;;;;;;11.27;1.45;;;;;;;-142.75;100.00;78850.44;4985093;28;20176;-69
2021/11/23 06:46:06;;;;;;;7.93;1.77;;;;;;;-142.75;100.00;78836.66;4985184;28;20022;-69
2021/11/23 06:48:31;;;;;;;9.18;1.50;;;;;;;-142.75;100.00;78830.75;4986307;28;20022;-69
2021/11/23 06:50:56;;;;;;;8.20;1.33;;;;;;;-142.75;100.00;78818.91;4985435;28;20038;-69
2021/11/23 06:53:22;;;;;;;4.93;1.13;;;;;;;-142.75;100.00;78826.81;4986558;28;20103;-69
2021/11/23 06:55:47;;;;;;;10.02;2.17;;;;;;;-142.75;100.00;78816.94;4985380;28;20026;-69
2021/11/23 06:58:12;;;;;;;7.05;1.42;;;;;;;-142.75;100.00;78820.88;4986312;28;20026;-69
2021/11/23 07:00:38;;;;;;;8.80;1.40;;;;;;;-142.75;100.00;78826.81;4985422;28;20022;-69
2021/11/23 07:03:04;;;;;;;4.75;1.42;;;;;;;-142.75;100.00;78822.88;4984765;28;20038;-69
2021/11/23 07:05:29;;;;;;;7.65;1.70;;;;;;;-142.75;100.00;78842.56;4986582;28;20018;-69
2021/11/23 07:07:56;;;;;;;7.20;1.48;;;;;;;-142.75;100.00;78842.56;4986963;28;20083;-70
2021/11/23 07:10:22;;;;;;;5.57;1.40;;;;;;;-142.75;100.00;78834.69;4986024;28;20068;-69
2021/11/23 07:12:47;;;;;;;8.63;2.08;;;;;;;-142.75;100.00;78830.75;4987034;28;20395;-69
2021/11/23 07:15:12;;;;;;;6.85;1.42;;;;;;;-142.75;100.00;78832.72;4986707;28;20029;-69
2021/11/23 07:17:38;;;;;;;6.63;1.30;;;;;;;-142.75;100.00;78832.72;4986659;28;20019;-69
2021/11/23 07:20:05;;;;;;;7.07;1.65;;;;;;;-142.75;100.00;78820.88;4985869;28;20094;-69
2021/11/23 07:22:31;;;;;;;6.40;1.30;;;;;;;-142.75;100.00;78813.00;4987069;28;20034;-68
2021/11/23 07:24:56;;;;;;;8.00;1.17;;;;;;;-142.75;100.00;78814.97;4985970;28;20095;-68
2021/11/23 07:27:22;;;;;;;15.82;1.92;;;;;;;-142.75;100.00;78814.97;4987190;28;20022;-68
2021/11/23 07:29:47;;;;;;;9.60;1.30;;;;;;;-142.75;100.00;78811.03;4986559;28;20479;-69
2021/11/23 07:32:12;;;;;;;8.93;1.90;;;;;;;-142.75;100.00;78807.09;4986360;28;20083;-69
2021/11/23 07:34:41;;;;;;;6.97;0.93;;;;;;;-142.75;100.00;78811.03;4985703;28;20030;-68
2021/11/23 07:37:07;;;;;;;8.23;1.30;;;;;;;-142.75;100.00;78803.16;4984576;28;20125;-68
2021/11/23 07:39:33;;;;;;;6.40;1.42;;;;;;;-142.75;100.00;78791.34;4985980;28;20396;-68
2021/11/23 07:41:58;;;;;;;;;;;;;;;-142.75;100.00;78793.31;4984511;28;20152;-69
2021/11/23 07:44:23;;;;;;;10.30;1.65;;;;;;;-142.75;100.00;78809.06;4986067;28;20005;-68
2021/11/23 07:46:49;;;;;;;9.57;1.40;;;;;;;-142.75;100.00;78811.03;4986067;28;20487;-67
2021/11/23 07:49:15;;;;;;;8.35;1.30;;;;;;;-142.75;100.00;78807.09;4985911;28;20304;-68
2021/11/23 07:51:40;;;;;;;7.78;1.63;;;;;;;-142.75;100.00;78805.13;4983912;28;20034;-68
2021/11/23 07:54:06;;;;;;;10.65;2.42;;;;;;;-142.75;100.00;78811.03;4986007;28;20035;-68
2021/11/23 07:56:32;;;;;;;12.25;1.60;;;;;;;-142.75;100.00;78811.03;4985958;28;20113;-69
2021/11/23 07:58:57;;;;;;;7.13;1.70;;;;;;;-142.75;100.00;78822.88;4986034;28;20033;-68
2021/11/23 08:01:23;;;;;;;7.55;1.48;;;;;;;-142.75;100.00;78814.97;4983115;28;20034;-68
2021/11/23 08:03:48;;;;;;;8.95;2.13;;;;;;;-142.75;100.00;78807.09;4983823;28;20476;-67
2021/11/23 08:06:14;;;;;;;11.40;2.47;;;;;;;-142.75;100.00;78811.03;4984814;28;20038;-69
2021/11/23 08:08:40;;;;;;;3.33;1.40;;;;;;;-142.75;100.00;78814.97;4984086;28;20034;-68
2021/11/23 08:11:06;;;;;;;8.70;1.83;;;;;;;-142.75;100.00;78816.94;4977367;28;20031;-69
2021/11/23 08:13:33;;;;;;;7.30;1.88;;;;;;;-142.75;100.00;78822.88;4977918;28;20029;-68
2021/11/23 08:16:03;;;;;;;;;;;;;;;-142.75;100.00;78832.72;4984965;28;20075;-70
2021/11/23 08:18:28;;;;;;;5.32;1.40;;;;;;;-142.75;100.00;78830.75;4985461;28;19913;-68
2021/11/23 08:20:53;;;;;;;7.43;1.70;;;;;;;-142.75;100.00;78826.81;4983520;28;20030;-68
2021/11/23 08:23:19;;;;;;;9.88;2.08;;;;;;;-142.75;100.00;78820.88;4986018;28;20483;-69
2021/11/23 08:25:46;;;;;;;7.72;1.80;;;;;;;-142.75;100.00;78826.81;4985724;28;20027;-69
2021/11/23 08:28:12;;;;;;;8.27;1.70;;;;;;;-142.75;100.00;78826.81;4984181;28;20026;-68
2021/11/23 08:30:37;;;;;;;5.38;1.88;;;;;;;-142.75;100.00;78822.88;4984734;28;20034;-68
2021/11/23 08:33:03;;;;;;;9.90;2.45;;;;;;;-142.75;100.00;78826.81;4983928;28;20079;-68
2021/11/23 08:35:28;;;;;;;6.70;1.95;;;;;;;-142.75;100.00;78805.13;4985720;28;20403;-67
2021/11/23 08:37:55;;;;;;;9.57;2.28;;;;;;;-142.75;100.00;78797.25;4985407;28;20109;-68
2021/11/23 08:40:20;;;;;;;7.85;2.33;;;;;;;-142.75;100.00;78779.53;4983460;28;20037;-65
2021/11/23 08:42:45;;;;;;;5.68;2.20;;;;;;;-142.75;100.00;78753.94;4985760;28;20030;-68
2021/11/23 08:45:12;;;;;;;10.20;2.38;;;;;;;-142.75;100.00;78746.03;4985734;28;20026;-68
2021/11/23 08:47:37;;;;;;;8.38;2.97;;;;;;;-142.75;100.00;78734.22;4987366;28;20045;-68
2021/11/23 08:50:06;;;;;;;11.25;2.50;;;;;;;-142.75;100.00;78726.34;4987939;28;20491;-69
2021/11/23 08:52:31;;;;;;;18.33;3.05;;;;;;;-142.75;100.00;78728.31;4988517;28;20499;-68
2021/11/23 08:54:56;;;;;;;9.73;2.90;;;;;;;-142.75;100.00;78694.84;4988616;28;20026;-69
2021/11/23 08:57:22;;;;;;;11.73;2.50;;;;;;;-142.75;100.00;78690.91;4987480;28;20030;-68
2021/11/23 08:59:48;;;;;;;11.75;2.67;;;;;;;-142.75;100.00;78685.00;4988117;28;20037;-68
2021/11/23 09:02:15;;;;;;;8.77;2.95;;;;;;;-142.75;100.00;78683.03;4987375;28;20027;-69
2021/11/23 09:04:42;;;;;;;7.13;2.40;;;;;;;-142.75;100.00;78683.03;4988511;28;20495;-69
2021/11/23 09:07:09;;;;;;;14.98;2.67;;;;;;;-142.75;100.00;78677.13;4987237;28;20030;-70
2021/11/23 09:09:42;;;;;;;12.15;2.95;;;;;;;-142.75;100.00;78681.06;4986754;28;20033;-68
2021/11/23 09:12:08;;;;;;;9.57;2.63;;;;;;;-142.75;100.00;78663.31;4985153;28;20030;-68
2021/11/23 09:14:35;;;;;;;;;;;;;;;-142.75;100.00;78661.34;4988741;28;20083;-69
2021/11/23 09:17:01;;;;;;;10.35;2.47;;;;;;;-142.75;100.00;78653.47;4999732;28;20004;-68
2021/11/23 09:19:27;;;;;;;10.02;3.58;;;;;;;-142.75;100.00;78647.56;4979602;28;20376;-67
2021/11/23 09:21:53;;;;;;;6.82;2.70;;;;;;;-142.75;100.00;78639.69;4979400;28;20027;-71
2021/11/23 09:24:20;;;;;;;7.20;2.60;;;;;;;-142.75;100.00;78633.78;4984184;28;20050;-69
2021/11/23 09:26:45;;;;;;;14.68;3.10;;;;;;;-142.75;100.00;78639.69;4981523;28;20056;-69
2021/11/23 09:29:13;;;;;;;8.30;3.00;;;;;;;-142.75;100.00;78637.72;4981143;28;20024;-69
2021/11/23 09:31:38;;;;;;;12.27;3.08;;;;;;;-142.75;100.00;78645.59;4982919;28;20074;-68
2021/11/23 09:34:03;;;;;;;8.68;2.45;;;;;;;-142.75;100.00;78673.19;4987957;28;20538;-68
2021/11/23 09:36:29;;;;;;;6.28;1.90;;;;;;;-142.75;100.00;78675.16;4986803;28;20030;-68
2021/11/23 09:38:54;;;;;;;7.13;2.50;;;;;;;-142.75;100.00;78686.97;4986589;28;20030;-68
2021/11/23 09:41:19;;;;;;;10.73;2.00;;;;;;;-142.75;100.00;78686.97;4986006;28;20092;-68
2021/11/23 09:43:44;;;;;;;7.78;1.85;;;;;;;-142.75;100.00;78696.81;4988097;28;20022;-68
2021/11/23 09:46:10;;;;;;;11.35;2.47;;;;;;;-142.75;100.00;78700.75;4988062;28;20034;-69
2021/11/23 09:48:41;;;;;;;8.75;2.38;;;;;;;-142.75;100.00;78692.88;4987778;28;20101;-69
2021/11/23 09:51:12;;;;;;;11.77;1.83;;;;;;;-142.75;100.00;78679.09;4987086;28;20038;-68
2021/11/23 09:53:37;;;;;;;5.95;1.85;;;;;;;-142.75;100.00;78683.03;4984537;28;20048;-68
2021/11/23 09:56:03;;;;;;;7.10;1.70;;;;;;;-142.75;100.00;78669.25;4983924;28;20450;-70
2021/11/23 09:58:28;;;;;;;9.52;2.25;;;;;;;-142.75;100.00;78681.06;4987628;28;20339;-69
2021/11/23 10:01:02;;;;;;;8.93;1.95;;;;;;;-142.75;100.00;78669.25;4985825;28;20080;-70
2021/11/23 10:03:31;;;;;;;8.55;2.22;;;;;;;-142.75;100.00;78665.28;4988437;28;20022;-71
2021/11/23 10:06:06;;;;;;;6.28;1.90;;;;;;;-142.75;100.00;78653.47;4989869;28;20041;-69
2021/11/23 10:08:32;;;;;;;11.77;2.72;;;;;;;-142.75;100.00;78651.50;4983807;28;20033;-70
2021/11/23 10:10:57;;;;;;;10.05;2.53;;;;;;;-142.75;100.00;78629.84;4986813;28;20102;-66
2021/11/23 10:13:38;;;;;;;7.28;1.98;;;;;;;-142.75;100.00;78610.16;4987974;28;20030;-67
2021/11/23 10:16:04;;;;;;;10.10;2.08;;;;;;;-142.75;100.00;78598.34;4987679;28;20030;-67
2021/11/23 10:18:29;;;;;;;5.00;1.65;;;;;;;-142.75;100.00;78598.34;4986545;28;20030;-66
2021/11/23 10:20:56;;;;;;;6.97;2.25;;;;;;;-142.75;100.00;78586.53;4987160;28;20030;-67
2021/11/23 10:23:25;;;;;;;7.38;1.65;;;;;;;-142.75;100.00;78580.59;4988470;28;20058;-67
2021/11/23 10:25:56;;;;;;;5.45;2.13;;;;;;;-142.75;100.00;78568.78;4988276;28;20034;-67
2021/11/23 10:28:25;;;;;;;4.50;1.67;;;;;;;-142.75;100.00;78568.78;4988403;28;20052;-68
2021/11/23 10:30:51;;;;;;;6.68;1.58;;;;;;;-142.75;100.00;78551.06;4986145;28;20615;-68
2021/11/23 10:33:17;;;;;;;5.57;1.40;;;;;;;-142.75;100.00;78535.31;4988501;28;20026;-67
2021/11/23 10:35:45;;;;;;;7.40;1.77;;;;;;;-142.75;100.00;78464.41;4988540;28;20137;-67
2021/11/23 10:38:11;;;;;;;7.97;1.60;;;;;;;-142.75;100.00;78373.81;4987790;28;20030;-66
2021/11/23 10:40:38;;;;;;;5.10;1.52;;;;;;;-142.75;100.00;78277.31;4986404;28;20023;-67
2021/11/23 10:43:09;;;;;;;6.57;1.30;;;;;;;-142.75;100.00;78318.69;4985953;28;20019;-68
2021/11/23 10:45:41;;;;;;;7.18;1.20;;;;;;;-142.75;100.00;78324.59;4985648;28;20026;-67
2021/11/23 10:48:08;;;;;;;8.07;1.30;;;;;;;-142.75;100.00;78338.38;4985716;28;20038;-68
2021/11/23 10:50:35;;;;;;;6.82;1.38;;;;;;;-142.75;100.00;78316.72;4986045;28;20585;-69
2021/11/23 10:53:07;;;;;;;5.90;1.50;;;;;;;-142.75;100.00;78281.25;4986898;28;20432;-67
2021/11/23 10:55:36;;;;;;;6.45;1.67;;;;;;;-142.75;100.00;78237.94;4986929;28;20031;-68
2021/11/23 10:58:04;;;;;;;6.25;1.15;;;;;;;-142.75;100.00;78241.88;4987007;28;20045;-68
2021/11/23 11:00:31;;;;;;;5.28;1.00;;;;;;;-142.75;100.00;78241.88;4986073;28;20030;-68
2021/11/23 11:03:00;;;;;;;4.30;1.15;;;;;;;-142.75;100.00;78267.47;4986301;28;20083;-68
2021/11/23 11:05:27;;;;;;;6.20;1.00;;;;;;;-142.75;100.00;78310.81;4986784;28;20095;-68